Time;durP1;ratioP1;P1;durP2;ratioP2;P2;SDS_P1;SDS_P2;PMS_P1;PMS_P2;Temp;Humidity;BMP_temperature;BMP_pressure;BME280_temperature;BME280_humidity;BME280_pressure;Samples;Min_cycle;Max_cycle;Signal;HPM_P1;HPM_P2
2022/11/10 00:00:04;;;;;;;0.30;0.30;;;11.40;99.90;;;;;;5035433;28;20656;-68
2022/11/10 00:02:30;;;;;;;0.40;0.40;;;11.50;99.90;;;;;;5035549;28;20639;-69
2022/11/10 00:04:56;;;;;;;0.40;0.40;;;11.50;99.90;;;;;;5035423;28;20175;-70
2022/11/10 00:07:26;;;;;;;0.63;0.50;;;11.40;99.90;;;;;;5035474;28;20163;-70
2022/11/10 00:09:53;;;;;;;0.50;0.50;;;11.40;99.90;;;;;;5035282;28;20321;-70
2022/11/10 00:12:20;;;;;;;0.30;0.30;;;11.40;99.90;;;;;;5035256;28;20163;-69
2022/11/10 00:17:30;;;;;;;0.45;0.45;;;11.20;99.90;;;;;;5035344;28;20174;-71
2022/11/10 00:19:55;;;;;;;0.60;0.60;;;11.20;99.90;;;;;;5035030;28;20195;-69
2022/11/10 00:22:21;;;;;;;0.30;0.30;;;11.40;99.90;;;;;;5035077;28;20167;-71
2022/11/10 00:24:46;;;;;;;0.40;0.40;;;11.40;99.90;;;;;;5034957;28;20205;-71
2022/11/10 00:27:16;;;;;;;0.40;0.40;;;11.40;99.90;;;;;;5035099;28;20210;-70
2022/11/10 00:29:41;;;;;;;0.30;0.30;;;11.40;99.90;;;;;;5035031;28;20541;-69
2022/11/10 00:32:07;;;;;;;0.30;0.30;;;11.50;99.90;;;;;;5034874;28;20409;-71
2022/11/10 00:34:33;;;;;;;0.30;0.30;;;11.50;99.90;;;;;;5034645;28;20171;-70
2022/11/10 00:36:59;;;;;;;0.30;0.30;;;11.50;99.90;;;;;;5017109;28;20405;-70
2022/11/10 00:39:24;;;;;;;0.40;0.40;;;11.60;99.90;;;;;;5034529;28;20218;-71
2022/11/10 00:41:50;;;;;;;0.50;0.50;;;11.60;99.90;;;;;;5034672;28;20670;-70
2022/11/10 00:44:16;;;;;;;0.40;0.40;;;11.60;99.90;;;;;;5034649;28;20171;-71
2022/11/10 00:46:41;;;;;;;0.70;0.70;;;11.60;99.90;;;;;;5017040;28;20179;-70
2022/11/10 00:49:07;;;;;;;0.40;0.40;;;11.60;99.90;;;;;;5034375;28;20191;-71
2022/11/10 00:51:33;;;;;;;0.40;0.40;;;11.60;99.90;;;;;;5034946;28;20608;-69
2022/11/10 00:53:58;;;;;;;0.30;0.30;;;11.60;99.90;;;;;;5034157;28;20174;-70
2022/11/10 00:56:24;;;;;;;0.40;0.40;;;11.60;99.90;;;;;;5034502;28;20175;-70
2022/11/10 00:58:50;;;;;;;0.30;0.30;;;11.50;99.90;;;;;;5034350;28;20229;-70
2022/11/10 01:01:18;;;;;;;0.40;0.40;;;11.40;99.90;;;;;;5034305;28;20401;-71
2022/11/10 01:03:43;;;;;;;0.30;0.30;;;11.30;99.90;;;;;;5034187;28;20476;-70
2022/11/10 01:06:14;;;;;;;0.50;0.50;;;11.30;99.90;;;;;;5034111;28;20563;-68
2022/11/10 01:08:41;;;;;;;0.43;0.43;;;11.30;99.90;;;;;;5034164;28;20195;-70
2022/11/10 01:11:24;;;;;;;0.40;0.40;;;11.30;99.90;;;;;;5034132;28;20191;-69
2022/11/10 01:13:52;;;;;;;0.30;0.30;;;11.10;99.90;;;;;;5034047;28;20522;-69
2022/11/10 01:16:29;;;;;;;0.30;0.30;;;11.10;99.90;;;;;;5034496;28;20589;-70
2022/11/10 01:19:00;;;;;;;0.30;0.30;;;11.10;99.90;;;;;;5034061;28;20206;-68
2022/11/10 01:21:27;;;;;;;0.30;0.30;;;11.10;99.90;;;;;;5034014;28;20207;-70
2022/11/10 01:23:53;;;;;;;0.57;0.57;;;10.90;99.90;;;;;;5033931;28;20516;-71
2022/11/10 01:26:19;;;;;;;0.30;0.30;;;10.80;99.90;;;;;;5034066;28;20171;-69
2022/11/10 01:28:45;;;;;;;0.30;0.30;;;10.60;99.90;;;;;;5033898;28;20621;-70
2022/11/10 01:31:14;;;;;;;0.40;0.40;;;10.50;99.90;;;;;;5033865;28;20615;-70
2022/11/10 01:33:40;;;;;;;0.40;0.40;;;10.50;99.90;;;;;;5033602;28;20175;-69
2022/11/10 01:36:07;;;;;;;0.30;0.30;;;10.40;99.90;;;;;;5034067;28;20171;-70
2022/11/10 01:38:35;;;;;;;0.40;0.40;;;10.40;99.90;;;;;;5033490;28;20221;-69
2022/11/10 01:41:02;;;;;;;0.40;0.40;;;10.20;99.90;;;;;;5015932;28;20202;-70
2022/11/10 01:43:28;;;;;;;1.25;0.63;;;10.20;99.90;;;;;;5033436;28;20179;-70
2022/11/10 01:46:01;;;;;;;0.30;0.30;;;10.20;99.90;;;;;;5033649;28;20250;-71
2022/11/10 01:48:44;;;;;;;0.30;0.30;;;10.10;99.90;;;;;;5033570;28;20199;-71
2022/11/10 01:51:23;;;;;;;0.52;0.52;;;10.10;99.90;;;;;;5033570;28;20236;-71
2022/11/10 01:53:56;;;;;;;0.50;0.50;;;9.90;99.90;;;;;;5033654;28;20198;-69
2022/11/10 01:56:24;;;;;;;0.90;0.50;;;9.70;99.90;;;;;;5033727;28;20569;-70
2022/11/10 01:58:55;;;;;;;0.30;0.30;;;9.60;99.90;;;;;;5033426;28;20206;-71
2022/11/10 02:01:21;;;;;;;0.30;0.30;;;9.60;99.90;;;;;;5033106;28;20155;-70
2022/11/10 02:03:50;;;;;;;0.60;0.60;;;9.50;99.90;;;;;;5033325;28;20167;-69
2022/11/10 02:06:18;;;;;;;0.30;0.30;;;9.40;99.90;;;;;;5033859;28;20170;-68
2022/11/10 02:08:45;;;;;;;0.40;0.40;;;9.40;99.90;;;;;;5015622;28;20230;-69
2022/11/10 02:11:12;;;;;;;0.30;0.30;;;9.40;99.90;;;;;;5033412;28;20231;-69
2022/11/10 02:13:38;;;;;;;0.30;0.30;;;9.30;99.90;;;;;;5033329;28;20170;-69
2022/11/10 02:16:04;;;;;;;0.40;0.40;;;9.20;99.90;;;;;;5033436;28;20193;-70
2022/11/10 02:18:29;;;;;;;0.43;0.43;;;9.10;99.90;;;;;;5033240;28;20511;-70
2022/11/10 02:20:55;;;;;;;0.40;0.40;;;9.10;99.90;;;;;;5033236;28;20178;-69
2022/11/10 02:23:29;;;;;;;0.40;0.40;;;9.10;99.90;;;;;;5033375;28;20167;-70
2022/11/10 02:25:56;;;;;;;0.47;0.47;;;9.10;99.90;;;;;;5033272;28;20594;-70
2022/11/10 02:28:23;;;;;;;0.50;0.50;;;9.20;99.90;;;;;;5033273;28;20550;-68
2022/11/10 02:30:49;;;;;;;0.30;0.30;;;9.20;99.90;;;;;;5033157;28;20171;-71
2022/11/10 02:33:17;;;;;;;0.30;0.30;;;9.00;99.90;;;;;;5033090;28;20186;-70
2022/11/10 02:35:45;;;;;;;0.30;0.30;;;8.90;99.90;;;;;;5033348;28;20174;-68
2022/11/10 02:38:10;;;;;;;0.30;0.30;;;8.90;99.90;;;;;;5032803;28;20214;-69
2022/11/10 02:40:36;;;;;;;0.50;0.50;;;8.80;99.90;;;;;;5033190;28;20576;-69
2022/11/10 02:43:05;;;;;;;0.30;0.30;;;8.80;99.90;;;;;;5015316;28;20663;-70
2022/11/10 02:45:30;;;;;;;0.30;0.30;;;8.80;99.90;;;;;;5033178;28;20258;-71
2022/11/10 02:47:56;;;;;;;0.50;0.50;;;8.60;99.90;;;;;;5032905;28;20206;-69
2022/11/10 02:50:22;;;;;;;0.53;0.50;;;8.60;99.90;;;;;;5033012;28;20178;-69
2022/11/10 02:52:48;;;;;;;0.40;0.40;;;8.50;99.90;;;;;;5033029;28;20175;-68
2022/11/10 02:55:13;;;;;;;0.63;0.63;;;8.60;99.90;;;;;;5033387;28;20437;-68
2022/11/10 02:57:39;;;;;;;0.40;0.40;;;8.60;99.90;;;;;;5033016;28;20188;-69
2022/11/10 03:00:06;;;;;;;0.30;0.30;;;8.60;99.90;;;;;;5032856;28;20191;-71
2022/11/10 03:02:32;;;;;;;0.30;0.30;;;8.60;99.90;;;;;;5032997;28;20174;-71
2022/11/10 03:04:57;;;;;;;0.30;0.30;;;8.60;99.90;;;;;;5032773;28;20178;-70
2022/11/10 03:07:23;;;;;;;0.40;0.40;;;8.60;99.90;;;;;;5032937;28;20183;-68
2022/11/10 03:09:49;;;;;;;0.40;0.40;;;8.60;99.90;;;;;;5032801;28;20194;-70
2022/11/10 03:12:15;;;;;;;0.30;0.30;;;8.60;99.90;;;;;;5032874;28;20182;-68
2022/11/10 03:14:41;;;;;;;0.50;0.50;;;8.60;99.90;;;;;;5035469;28;20185;-69
2022/11/10 03:17:06;;;;;;;0.30;0.30;;;8.60;99.90;;;;;;5036288;28;20540;-70
2022/11/10 03:19:32;;;;;;;0.40;0.40;;;8.60;99.90;;;;;;5036175;28;20212;-71
2022/11/10 03:21:58;;;;;;;1.47;0.70;;;8.60;99.90;;;;;;5036599;28;20580;-70
2022/11/10 03:24:23;;;;;;;1.00;0.50;;;8.60;99.90;;;;;;5036156;28;20621;-70
2022/11/10 03:26:49;;;;;;;0.40;0.40;;;8.60;99.90;;;;;;5036350;28;20169;-69
2022/11/10 03:29:14;;;;;;;0.50;0.40;;;8.60;99.90;;;;;;5035998;28;20193;-68
2022/11/10 03:31:40;;;;;;;0.30;0.30;;;8.70;99.90;;;;;;5036057;28;20292;-70
2022/11/10 03:34:06;;;;;;;0.40;0.40;;;8.70;99.90;;;;;;5035970;28;20193;-69
2022/11/10 03:36:31;;;;;;;0.40;0.40;;;8.70;99.90;;;;;;5036020;28;20204;-70
2022/11/10 03:38:57;;;;;;;0.30;0.30;;;8.80;99.90;;;;;;5035735;28;20626;-69
2022/11/10 03:41:23;;;;;;;0.30;0.30;;;8.80;99.90;;;;;;5035809;28;20548;-70
2022/11/10 03:43:49;;;;;;;0.30;0.30;;;8.80;99.90;;;;;;5035751;28;20248;-70
2022/11/10 03:46:15;;;;;;;0.50;0.50;;;8.80;99.90;;;;;;5035693;28;20174;-71
2022/11/10 03:48:41;;;;;;;0.40;0.40;;;8.80;99.90;;;;;;5035649;28;20433;-70
2022/11/10 03:51:06;;;;;;;0.60;0.40;;;8.80;99.90;;;;;;5035297;28;20193;-71
2022/11/10 03:53:32;;;;;;;0.40;0.40;;;8.80;99.90;;;;;;5034870;28;20174;-70
2022/11/10 03:56:04;;;;;;;0.43;0.43;;;8.80;99.90;;;;;;5034297;28;20174;-69
2022/11/10 03:58:30;;;;;;;0.30;0.30;;;8.80;99.90;;;;;;5035204;28;20240;-69
2022/11/10 04:00:56;;;;;;;0.47;0.47;;;8.90;99.90;;;;;;5035463;28;20201;-67
2022/11/10 04:03:23;;;;;;;0.30;0.30;;;8.90;99.90;;;;;;5035480;28;20249;-70
2022/11/10 04:15:40;;;;;;;0.50;0.50;;;8.90;99.90;;;;;;5035374;28;20187;-70
2022/11/10 04:16:47;;;;;;;0.40;0.40;;;8.90;99.90;;;;;;5035447;28;20188;-70
2022/11/10 04:19:14;;;;;;;0.30;0.30;;;8.80;99.90;;;;;;5035065;28;20209;-68
2022/11/10 04:21:40;;;;;;;0.40;0.40;;;8.90;99.90;;;;;;5017560;28;20397;-70
2022/11/10 04:24:06;;;;;;;0.30;0.30;;;8.90;99.90;;;;;;5034528;28;20181;-70
2022/11/10 04:26:36;;;;;;;0.30;0.30;;;8.90;99.90;;;;;;5034942;28;20405;-69
2022/11/10 04:29:10;;;;;;;0.30;0.30;;;8.90;99.90;;;;;;5035142;28;20639;-70
2022/11/10 04:31:38;;;;;;;0.30;0.30;;;8.90;99.90;;;;;;5035586;28;20163;-68
2022/11/10 04:34:09;;;;;;;0.40;0.40;;;9.00;99.90;;;;;;5034700;28;20249;-66
2022/11/10 04:36:39;;;;;;;0.30;0.30;;;9.10;99.90;;;;;;5035416;28;20578;-66
2022/11/10 04:39:05;;;;;;;0.40;0.40;;;9.70;99.90;;;;;;5034943;28;20348;-66
2022/11/10 04:41:32;;;;;;;0.30;0.30;;;10.50;99.90;;;;;;5034878;28;20582;-66
2022/11/10 04:44:03;;;;;;;0.40;0.40;;;11.30;99.90;;;;;;5016869;28;20551;-68
2022/11/10 04:46:35;;;;;;;1.15;1.10;;;11.50;99.90;;;;;;5034763;28;20170;-68
2022/11/10 04:49:03;;;;;;;0.70;0.70;;;11.40;99.50;;;;;;5017001;28;20694;-70
2022/11/10 04:51:35;;;;;;;0.30;0.30;;;11.10;99.30;;;;;;5017120;28;20183;-71
2022/11/10 04:54:02;;;;;;;0.47;0.45;;;10.70;99.10;;;;;;5016710;28;20183;-67
2022/11/10 04:56:28;;;;;;;0.50;0.40;;;10.50;99.50;;;;;;5034986;28;20170;-70
2022/11/10 04:58:55;;;;;;;0.68;0.68;;;10.20;99.80;;;;;;5034948;28;20602;-70
2022/11/10 05:01:24;;;;;;;1.08;1.08;;;10.00;99.90;;;;;;5034333;28;20167;-69
2022/11/10 05:03:50;;;;;;;0.40;0.40;;;9.80;99.90;;;;;;5016600;28;20266;-70
2022/11/10 05:06:17;;;;;;;0.73;0.50;;;9.70;99.90;;;;;;5016955;28;20171;-70
2022/11/10 05:08:44;;;;;;;0.45;0.40;;;9.40;99.90;;;;;;5034392;28;20538;-69
2022/11/10 05:11:11;;;;;;;0.30;0.30;;;9.30;99.90;;;;;;5034416;28;20660;-69
2022/11/10 05:13:36;;;;;;;0.40;0.40;;;9.10;99.90;;;;;;5034151;28;20240;-69
2022/11/10 05:16:02;;;;;;;0.83;0.70;;;8.90;99.90;;;;;;5034216;28;20202;-71
2022/11/10 05:18:28;;;;;;;0.40;0.40;;;8.90;99.90;;;;;;5033729;28;20898;-70
2022/11/10 05:20:54;;;;;;;0.40;0.40;;;8.80;99.90;;;;;;5034424;28;20404;-70
2022/11/10 05:23:39;;;;;;;0.40;0.40;;;8.80;99.90;;;;;;5033685;28;20413;-67
2022/11/10 05:26:18;;;;;;;0.30;0.30;;;8.80;99.90;;;;;;5034052;28;20176;-68
2022/11/10 05:28:45;;;;;;;0.50;0.50;;;8.70;99.90;;;;;;5032902;28;20201;-68
2022/11/10 05:31:11;;;;;;;0.50;0.50;;;8.50;99.90;;;;;;5034146;28;20623;-70
2022/11/10 05:33:37;;;;;;;0.30;0.30;;;8.60;99.90;;;;;;5033569;28;20260;-67
2022/11/10 05:36:05;;;;;;;0.30;0.30;;;8.60;99.90;;;;;;5033340;28;20228;-70
2022/11/10 05:38:31;;;;;;;0.60;0.60;;;8.80;99.90;;;;;;5016044;28;20220;-70
2022/11/10 05:40:57;;;;;;;0.80;0.80;;;8.90;99.90;;;;;;5033771;28;20235;-69
2022/11/10 05:43:23;;;;;;;0.30;0.30;;;8.90;99.90;;;;;;5033511;28;20256;-71
2022/11/10 05:45:48;;;;;;;0.50;0.50;;;8.90;99.90;;;;;;5034006;28;20212;-68
2022/11/10 05:48:14;;;;;;;1.40;1.33;;;8.80;99.90;;;;;;5033546;28;20690;-68
2022/11/10 05:50:42;;;;;;;0.40;0.40;;;8.70;99.90;;;;;;5034200;28;20400;-68
2022/11/10 05:53:07;;;;;;;0.40;0.40;;;8.70;99.90;;;;;;5033952;28;20200;-68
2022/11/10 05:55:33;;;;;;;0.83;0.83;;;8.60;99.90;;;;;;5033613;28;20176;-70
2022/11/10 05:57:59;;;;;;;1.37;1.27;;;8.50;99.90;;;;;;5015632;28;20687;-68
2022/11/10 06:00:27;;;;;;;0.30;0.30;;;8.50;99.90;;;;;;5033881;28;20174;-67
2022/11/10 06:03:17;;;;;;;0.40;0.40;;;8.40;99.90;;;;;;5033518;28;20173;-67
2022/11/10 06:05:44;;;;;;;0.40;0.40;;;8.40;99.90;;;;;;5023889;28;20178;-70
2022/11/10 06:08:10;;;;;;;0.40;0.40;;;8.20;99.90;;;;;;5032484;28;20182;-69
2022/11/10 06:10:37;;;;;;;0.30;0.30;;;8.30;99.90;;;;;;5031590;28;20177;-68
2022/11/10 06:13:03;;;;;;;0.60;0.55;;;8.20;99.90;;;;;;5031711;28;20176;-69
2022/11/10 06:15:29;;;;;;;0.50;0.50;;;8.20;99.90;;;;;;5031772;28;20232;-68
2022/11/10 06:17:56;;;;;;;0.30;0.30;;;8.20;99.90;;;;;;5031575;28;20194;-68
2022/11/10 06:20:22;;;;;;;0.40;0.40;;;8.30;99.90;;;;;;5031780;28;20635;-70
2022/11/10 06:23:00;;;;;;;0.30;0.30;;;8.30;99.90;;;;;;5032557;28;20235;-72
2022/11/10 06:25:27;;;;;;;1.10;0.60;;;8.20;99.90;;;;;;5033214;28;20273;-70
2022/11/10 06:27:52;;;;;;;0.93;0.93;;;8.20;99.90;;;;;;5033675;28;20169;-68
2022/11/10 06:30:18;;;;;;;0.40;0.40;;;8.20;99.90;;;;;;5033212;28;20253;-67
2022/11/10 06:32:44;;;;;;;0.60;0.60;;;8.20;99.90;;;;;;5033154;28;20185;-69
2022/11/10 06:35:10;;;;;;;2.03;0.80;;;8.20;99.90;;;;;;5033187;28;20229;-70
2022/11/10 06:37:39;;;;;;;0.30;0.30;;;8.20;99.90;;;;;;5031929;28;20916;-70
2022/11/10 06:40:07;;;;;;;0.73;0.73;;;8.30;99.90;;;;;;5031887;28;20202;-70
2022/11/10 06:42:34;;;;;;;0.55;0.55;;;8.20;99.90;;;;;;5032183;28;20181;-67
2022/11/10 06:44:59;;;;;;;0.40;0.40;;;8.20;99.90;;;;;;5033070;28;20248;-70
2022/11/10 06:47:26;;;;;;;0.40;0.40;;;8.20;99.90;;;;;;5034223;28;20209;-70
2022/11/10 06:49:52;;;;;;;0.50;0.50;;;8.20;99.90;;;;;;5036789;28;20448;-67
2022/11/10 06:52:18;;;;;;;0.40;0.40;;;8.20;99.90;;;;;;5036813;28;20179;-69
2022/11/10 06:54:43;;;;;;;0.40;0.40;;;8.20;99.90;;;;;;5036711;28;20441;-70
2022/11/10 06:57:09;;;;;;;0.50;0.50;;;8.20;99.90;;;;;;5036783;28;20464;-68
2022/11/10 06:59:34;;;;;;;0.40;0.40;;;8.20;99.90;;;;;;5036739;28;20201;-67
2022/11/10 07:02:00;;;;;;;0.40;0.40;;;8.30;99.90;;;;;;5036580;28;20656;-68
2022/11/10 07:04:26;;;;;;;0.40;0.40;;;8.30;99.90;;;;;;5036438;28;20178;-68
2022/11/10 07:06:51;;;;;;;0.30;0.30;;;8.40;99.90;;;;;;5018705;28;20224;-68
2022/11/10 07:09:17;;;;;;;0.30;0.30;;;8.30;99.90;;;;;;5036696;28;20193;-70
2022/11/10 07:11:43;;;;;;;0.60;0.60;;;8.30;99.90;;;;;;5036572;28;20196;-69
2022/11/10 07:14:09;;;;;;;0.40;0.40;;;8.40;99.90;;;;;;5036234;28;20171;-69
2022/11/10 07:16:35;;;;;;;0.63;0.63;;;8.50;99.90;;;;;;5036480;28;20219;-69
2022/11/10 07:19:00;;;;;;;0.30;0.30;;;8.50;99.90;;;;;;5036147;28;20460;-70
2022/11/10 07:21:26;;;;;;;0.40;0.40;;;8.50;99.90;;;;;;5036506;28;20167;-69
2022/11/10 07:23:51;;;;;;;0.60;0.60;;;8.60;99.90;;;;;;5036309;28;20216;-70
2022/11/10 07:26:17;;;;;;;0.53;0.53;;;8.60;99.90;;;;;;5036056;28;20167;-68
2022/11/10 07:28:43;;;;;;;0.40;0.40;;;8.60;99.90;;;;;;5036672;28;20564;-71
2022/11/10 07:31:08;;;;;;;0.90;0.50;;;8.70;99.90;;;;;;5036726;28;20179;-71
2022/11/10 07:33:34;;;;;;;2.97;0.50;;;8.80;99.90;;;;;;5035883;28;20174;-71
2022/11/10 07:36:02;;;;;;;0.73;0.70;;;8.80;99.90;;;;;;5036432;28;20232;-67
2022/11/10 07:38:28;;;;;;;0.40;0.40;;;8.80;99.90;;;;;;5035698;28;20666;-70
2022/11/10 07:40:54;;;;;;;0.53;0.53;;;8.90;99.90;;;;;;5036094;28;20200;-70
2022/11/10 07:43:22;;;;;;;0.30;0.30;;;9.10;99.90;;;;;;5036008;28;20409;-71
2022/11/10 07:45:52;;;;;;;0.40;0.40;;;9.20;99.90;;;;;;5018706;28;20645;-68
2022/11/10 07:48:18;;;;;;;0.50;0.50;;;9.30;99.90;;;;;;5035764;28;20187;-68
2022/11/10 07:50:44;;;;;;;0.30;0.30;;;9.30;99.80;;;;;;5035636;28;20738;-69
2022/11/10 07:53:19;;;;;;;0.30;0.30;;;9.40;99.90;;;;;;5035550;28;20178;-69
2022/11/10 07:55:45;;;;;;;1.00;1.00;;;9.50;99.60;;;;;;5036297;28;20201;-67
2022/11/10 07:58:13;;;;;;;0.75;0.75;;;10.00;99.90;;;;;;5035208;28;20182;-68
2022/11/10 08:00:40;;;;;;;1.05;1.05;;;10.00;98.90;;;;;;5034982;28;20171;-67
2022/11/10 08:03:11;;;;;;;0.30;0.30;;;10.30;98.80;;;;;;5035578;28;20579;-69
2022/11/10 08:05:37;;;;;;;0.38;0.38;;;10.50;98.20;;;;;;5035896;28;20210;-70
2022/11/10 08:08:04;;;;;;;0.30;0.30;;;10.70;97.70;;;;;;5035842;28;20173;-69
2022/11/10 08:10:30;;;;;;;1.38;0.75;;;10.80;97.60;;;;;;5036070;28;20198;-69
2022/11/10 08:13:00;;;;;;;0.30;0.30;;;10.90;97.60;;;;;;5035134;28;20612;-69
2022/11/10 08:15:27;;;;;;;1.03;0.93;;;11.10;97.60;;;;;;5035810;28;20405;-70
2022/11/10 08:18:11;;;;;;;0.30;0.30;;;11.20;97.00;;;;;;5035469;28;20475;-68
2022/11/10 08:20:37;;;;;;;0.70;0.70;;;11.40;97.10;;;;;;5035832;28;20486;-69
2022/11/10 08:23:05;;;;;;;5.53;0.60;;;11.90;96.80;;;;;;5035036;28;20484;-69
2022/11/10 08:25:32;;;;;;;0.63;0.63;;;12.20;95.90;;;;;;5035141;28;20174;-68
2022/11/10 08:27:58;;;;;;;1.00;1.00;;;12.50;95.50;;;;;;5017254;28;20410;-68
2022/11/10 08:30:24;;;;;;;1.63;1.50;;;12.90;94.60;;;;;;5035341;28;20412;-69
2022/11/10 08:32:53;;;;;;;0.53;0.53;;;13.20;93.90;;;;;;5035252;28;20179;-71
2022/11/10 08:35:19;;;;;;;0.93;0.40;;;13.50;93.40;;;;;;5035458;28;20402;-69
2022/11/10 08:37:44;;;;;;;0.93;0.80;;;13.60;93.40;;;;;;5034775;28;21033;-70
2022/11/10 08:40:11;;;;;;;0.40;0.40;;;13.90;93.70;;;;;;5034738;28;20275;-69
2022/11/10 08:42:36;;;;;;;0.40;0.40;;;14.60;93.60;;;;;;5034955;28;20250;-69
2022/11/10 08:45:02;;;;;;;0.53;0.50;;;15.20;92.30;;;;;;5034865;28;20437;-69
2022/11/10 08:47:27;;;;;;;1.90;0.80;;;15.90;91.60;;;;;;5035153;28;20167;-69
2022/11/10 08:49:53;;;;;;;0.30;0.30;;;16.70;90.30;;;;;;5034664;28;20215;-69
2022/11/10 08:52:19;;;;;;;0.40;0.40;;;17.20;88.30;;;;;;5035258;28;20167;-70
2022/11/10 08:54:44;;;;;;;1.80;1.03;;;17.10;85.10;;;;;;5034443;28;20182;-69
2022/11/10 08:57:10;;;;;;;0.50;0.50;;;16.50;85.50;;;;;;5034713;28;20178;-69
2022/11/10 08:59:35;;;;;;;1.90;0.60;;;16.60;85.80;;;;;;5034680;28;20260;-68
2022/11/10 09:02:01;;;;;;;0.70;0.70;;;17.30;85.20;;;;;;5034757;28;20625;-70
2022/11/10 09:04:27;;;;;;;1.57;0.50;;;18.60;82.90;;;;;;5016413;28;20223;-70
2022/11/10 09:06:56;;;;;;;0.90;0.77;;;20.00;78.30;;;;;;5034895;28;20166;-68
2022/11/10 09:09:23;;;;;;;0.43;0.43;;;20.90;73.90;;;;;;5034339;28;20182;-70
2022/11/10 09:11:49;;;;;;;0.90;0.70;;;21.70;71.20;;;;;;5034397;28;20388;-68
2022/11/10 09:14:14;;;;;;;0.40;0.40;;;22.50;67.90;;;;;;5034377;28;20388;-69
2022/11/10 09:16:40;;;;;;;0.40;0.40;;;23.10;64.60;;;;;;5034437;28;20175;-69
2022/11/10 09:19:06;;;;;;;0.47;0.40;;;24.10;62.50;;;;;;5034122;28;20286;-70
2022/11/10 09:21:31;;;;;;;0.30;0.30;;;25.00;59.00;;;;;;5034752;28;20254;-70
2022/11/10 09:23:59;;;;;;;0.50;0.50;;;25.80;56.60;;;;;;5033828;28;20194;-70
2022/11/10 09:26:24;;;;;;;1.07;0.97;;;26.50;54.90;;;;;;5034202;28;20171;-70
2022/11/10 09:28:50;;;;;;;0.50;0.50;;;26.80;53.20;;;;;;5034207;28;20584;-69
2022/11/10 09:31:16;;;;;;;0.50;0.40;;;26.60;52.70;;;;;;5034354;28;20639;-69
2022/11/10 09:33:42;;;;;;;0.60;0.60;;;26.90;51.30;;;;;;5033961;28;20456;-70
2022/11/10 09:36:08;;;;;;;0.50;0.50;;;27.40;49.90;;;;;;5033827;28;20309;-69
2022/11/10 09:38:34;;;;;;;0.40;0.40;;;27.70;50.50;;;;;;5032881;28;20604;-70
2022/11/10 09:41:12;;;;;;;0.40;0.40;;;28.10;48.10;;;;;;5032514;28;20170;-71
2022/11/10 09:44:00;;;;;;;0.40;0.40;;;28.40;47.20;;;;;;5033535;28;20496;-70
2022/11/10 09:46:43;;;;;;;0.40;0.40;;;28.70;46.40;;;;;;5034170;28;20742;-70
2022/11/10 09:49:22;;;;;;;0.40;0.40;;;28.70;46.20;;;;;;5032866;28;20461;-71
2022/11/10 09:51:50;;;;;;;0.60;0.60;;;27.80;46.70;;;;;;5034005;28;20437;-70
2022/11/10 09:54:47;;;;;;;1.43;0.40;;;27.60;47.60;;;;;;5033465;28;20432;-70
2022/11/10 09:57:17;;;;;;;0.30;0.30;;;27.80;47.70;;;;;;5033905;28;20402;-70
2022/11/10 09:59:43;;;;;;;2.07;0.60;;;27.90;47.10;;;;;;5033656;28;20467;-69
2022/11/10 10:02:29;;;;;;;0.30;0.30;;;27.90;47.30;;;;;;5033630;28;20742;-69
2022/11/10 10:05:01;;;;;;;0.40;0.40;;;27.70;47.50;;;;;;5033890;28;20421;-69
2022/11/10 10:07:38;;;;;;;0.30;0.30;;;27.70;47.00;;;;;;5033034;28;20875;-68
2022/11/10 10:10:43;;;;;;;0.30;0.30;;;27.30;47.10;;;;;;5032566;28;20464;-69
2022/11/10 10:13:31;;;;;;;0.40;0.33;;;27.20;48.80;;;;;;4952130;29;20479;-69
2022/11/10 10:16:00;;;;;;;0.40;0.40;;;27.00;49.70;;;;;;5031474;28;20429;-69
2022/11/10 10:18:48;;;;;;;0.30;0.30;;;26.50;50.60;;;;;;5033089;28;20490;-69
2022/11/10 10:21:29;;;;;;;0.30;0.30;;;25.90;51.20;;;;;;5033647;28;20402;-70
2022/11/10 10:23:58;;;;;;;0.40;0.40;;;25.30;52.00;;;;;;5036998;28;20400;-69
2022/11/10 10:26:30;;;;;;;0.40;0.40;;;24.90;52.70;;;;;;5037334;28;20437;-69
2022/11/10 10:29:10;;;;;;;0.50;0.40;;;23.70;50.80;;;;;;5037506;28;20451;-69
2022/11/10 10:31:49;;;;;;;0.30;0.30;;;22.10;55.50;;;;;;5037889;28;20440;-69
2022/11/10 10:34:24;;;;;;;0.40;0.40;;;20.10;58.90;;;;;;5036954;28;20408;-69
2022/11/10 10:36:50;;;;;;;0.30;0.30;;;18.80;64.70;;;;;;5037864;28;20413;-68
2022/11/10 10:39:19;;;;;;;0.30;0.30;;;18.20;70.50;;;;;;5036586;28;20468;-69
2022/11/10 10:41:45;;;;;;;0.60;0.50;;;18.00;69.50;;;;;;5037329;28;20405;-69
2022/11/10 10:44:14;;;;;;;0.30;0.30;;;17.80;64.90;;;;;;5036700;28;20447;-69
2022/11/10 10:46:50;;;;;;;0.30;0.30;;;17.50;70.60;;;;;;5037523;28;20415;-68
2022/11/10 10:49:19;;;;;;;0.30;0.30;;;17.20;71.50;;;;;;5036903;28;20433;-68
2022/11/10 10:51:45;;;;;;;1.00;1.00;;;17.10;70.50;;;;;;5037043;28;20412;-69
2022/11/10 10:54:26;;;;;;;0.30;0.30;;;17.20;73.40;;;;;;5036931;28;20743;-68
2022/11/10 10:57:05;;;;;;;1.17;1.07;;;17.10;76.50;;;;;;5037263;28;20412;-69
2022/11/10 10:59:32;;;;;;;0.30;0.30;;;17.20;76.80;;;;;;5037101;28;20460;-69
2022/11/10 11:01:58;;;;;;;0.40;0.40;;;17.00;80.20;;;;;;5036757;28;20405;-69
2022/11/10 11:04:35;;;;;;;0.40;0.40;;;16.70;78.60;;;;;;5036730;28;20766;-69
2022/11/10 11:07:04;;;;;;;0.30;0.30;;;16.20;81.20;;;;;;5036518;28;20404;-68
2022/11/10 11:09:40;;;;;;;0.43;0.43;;;15.60;90.30;;;;;;5036407;28;20428;-69
2022/11/10 11:12:14;;;;;;;0.57;0.57;;;15.10;93.10;;;;;;5018770;28;20952;-68
2022/11/10 11:14:40;;;;;;;0.33;0.33;;;14.90;93.60;;;;;;5036467;28;20392;-69
2022/11/10 11:17:17;;;;;;;0.57;0.57;;;14.80;92.40;;;;;;5036734;28;20411;-68
2022/11/10 11:19:43;;;;;;;0.40;0.40;;;14.60;94.30;;;;;;5036168;28;20205;-69
2022/11/10 11:22:46;;;;;;;0.50;0.40;;;14.60;92.20;;;;;;5036901;28;20405;-69
2022/11/10 11:25:33;;;;;;;2.20;0.73;;;14.80;94.70;;;;;;5036555;28;20266;-67
2022/11/10 11:28:29;;;;;;;0.40;0.40;;;14.80;95.00;;;;;;5035991;28;20407;-69
2022/11/10 11:31:13;;;;;;;0.83;0.83;;;14.70;95.30;;;;;;5036409;28;20410;-68
2022/11/10 11:33:46;;;;;;;0.40;0.40;;;14.70;94.90;;;;;;5034593;28;20446;-69
2022/11/10 11:36:33;;;;;;;0.40;0.40;;;14.80;94.80;;;;;;5036361;28;20493;-69
2022/11/10 11:39:15;;;;;;;0.40;0.40;;;14.70;90.90;;;;;;5035786;28;20468;-68
2022/11/10 11:42:08;;;;;;;0.33;0.33;;;14.70;94.30;;;;;;5036084;28;20886;-69
2022/11/10 11:44:45;;;;;;;2.30;0.97;;;14.80;93.80;;;;;;5035914;28;20413;-68
2022/11/10 11:47:30;;;;;;;0.50;0.50;;;14.90;93.40;;;;;;5035181;28;20408;-68
2022/11/10 11:50:14;;;;;;;0.50;0.50;;;14.60;93.30;;;;;;5035066;28;20518;-67
2022/11/10 11:53:01;;;;;;;0.40;0.40;;;14.30;93.10;;;;;;5035124;28;20757;-69
2022/11/10 11:56:05;;;;;;;0.30;0.30;;;14.00;92.30;;;;;;5035189;28;20500;-69
2022/11/10 11:58:44;;;;;;;0.40;0.40;;;13.70;91.90;;;;;;5034984;28;20468;-69
2022/11/10 12:01:38;;;;;;;0.80;0.50;;;13.50;93.10;;;;;;5036002;28;20404;-68
2022/11/10 12:04:22;;;;;;;0.30;0.30;;;13.70;93.00;;;;;;5035563;28;20410;-68
2022/11/10 12:07:02;;;;;;;0.37;0.37;;;13.70;94.60;;;;;;5035675;28;20402;-69
2022/11/10 12:09:49;;;;;;;0.30;0.30;;;13.70;94.50;;;;;;5035955;28;20421;-69
2022/11/10 12:12:20;;;;;;;0.40;0.40;;;13.80;94.30;;;;;;5036006;28;20422;-68
2022/11/10 12:14:55;;;;;;;0.30;0.30;;;13.90;94.80;;;;;;5035245;28;20408;-67
2022/11/10 12:17:48;;;;;;;0.40;0.40;;;13.80;95.00;;;;;;5035528;28;20400;-69
2022/11/10 12:20:19;;;;;;;0.30;0.30;;;13.90;94.30;;;;;;5035871;28;20822;-68
2022/11/10 12:23:15;;;;;;;0.40;0.40;;;13.90;95.10;;;;;;5035638;28;20477;-68
2022/11/10 12:26:18;;;;;;;0.30;0.30;;;13.90;94.50;;;;;;5035689;28;20393;-67
2022/11/10 12:29:10;;;;;;;0.40;0.40;;;13.90;92.40;;;;;;5035312;28;20428;-68
2022/11/10 12:31:38;;;;;;;0.40;0.40;;;13.80;93.50;;;;;;5035169;28;20386;-69
2022/11/10 12:34:41;;;;;;;0.30;0.30;;;13.70;94.90;;;;;;5035087;28;20781;-69
2022/11/10 12:37:16;;;;;;;0.40;0.40;;;13.70;93.90;;;;;;5035541;28;20496;-69
2022/11/10 12:39:59;;;;;;;0.40;0.40;;;13.70;94.80;;;;;;5034665;28;20461;-69
2022/11/10 12:42:27;;;;;;;0.50;0.50;;;13.50;94.70;;;;;;5035122;28;20953;-68
2022/11/10 12:44:53;;;;;;;0.40;0.40;;;13.40;95.30;;;;;;5034434;28;20401;-68
2022/11/10 12:47:20;;;;;;;0.30;0.30;;;13.30;95.30;;;;;;5035165;28;20747;-69
2022/11/10 12:50:02;;;;;;;0.50;0.50;;;13.20;96.60;;;;;;5035227;28;20684;-69
2022/11/10 12:52:39;;;;;;;0.30;0.30;;;13.00;97.30;;;;;;5034991;28;20424;-68
2022/11/10 12:55:05;;;;;;;0.30;0.30;;;12.90;97.90;;;;;;5034877;28;20428;-68
2022/11/10 12:57:32;;;;;;;0.30;0.30;;;12.80;97.20;;;;;;5034851;28;20504;-68
2022/11/10 13:00:06;;;;;;;0.60;0.60;;;12.70;96.90;;;;;;5034894;28;20455;-68
2022/11/10 13:02:45;;;;;;;0.40;0.40;;;12.70;97.00;;;;;;5016742;28;20413;-69
2022/11/10 13:05:14;;;;;;;0.30;0.30;;;12.60;97.50;;;;;;5034366;28;20433;-68
2022/11/10 13:07:46;;;;;;;0.30;0.30;;;12.40;97.90;;;;;;5034629;28;20404;-68
2022/11/10 13:10:17;;;;;;;0.53;0.53;;;12.40;98.20;;;;;;5034612;28;20914;-68
2022/11/10 13:13:04;;;;;;;0.40;0.40;;;12.30;98.30;;;;;;5034692;28;20411;-67
2022/11/10 13:15:36;;;;;;;0.40;0.40;;;12.30;98.50;;;;;;5034599;28;20719;-68